Decoded Metar for EPWR (WROCLAW in POLAND) (IATA:WRO) | Meteo·Mobile Aviation Weather
aviador You're here:

EPWR Decoded Metar

WROCLAW in POLAND
Report Time2019-06-27 09:00:00
UTC Time2019-06-27 09:15:34
Flight Rules vfr VFR
Wind290° at 17 kt
W.Decomp.*RWY 29: 17.0 kt HW 0.9 kt LCW
Visibility9999 m
Phenomena:N/A
Clouds:Few 035 Hf
Expected CloudBase > 5,200 ft AGL from Temp-Dew spread
CeilingNone
Temp24°C (ISA +10)
Dew Point11°C (44% RH)
AAT18.2°C
QNH1021 hPa
Density Alt1,444 ft
Elevation397 ft
Report Wrong Elevation
Raw Report
EPWR 270900Z 29017KT 9999 FEW035 24/11 Q1021=

Extra information for EPWR:More info

Metar Taf Metar & Taf Last 4 Metars F.Rules Stats Wind Profile Meteogram Temp Stats Airport Information Weather charts Add Link Nearby VenuesMetar ALERT Operation Metar Decoded Social comments